TAF Text Data
IDs:
Format:
Raw Decoded Include METAR

Data at: 0641 UTC 07 Dec 2022

KORH 070539Z 0706/0806 12009KT 1/2SM -SHRA FG OVC002
  FM072100 20006KT 3/4SM BR VCSH OVC003
  FM080300 28007KT 1 1/2SM BR BKN003
  FM080400 29007KT 3SM BR BKN008
  FM080500 30008KT 5SM BR BKN010